sensor_id;sensor_type;location;lat;lon;timestamp;P1;durP1;ratioP1;P2;durP2;ratioP2
10731;SDS011;5417;42.686;23.244;2023-06-01T00:05:17;8.67;;;7.87;;
10731;SDS011;5417;42.686;23.244;2023-06-01T00:11:33;9.67;;;8.53;;
10731;SDS011;5417;42.686;23.244;2023-06-01T00:53:34;8.20;;;7.50;;
10731;SDS011;5417;42.686;23.244;2023-06-01T00:56:01;8.67;;;7.87;;
10731;SDS011;5417;42.686;23.244;2023-06-01T00:59:06;8.10;;;7.30;;
10731;SDS011;5417;42.686;23.244;2023-06-01T01:02:53;8.83;;;8.17;;
10731;SDS011;5417;42.686;23.244;2023-06-01T01:08:13;8.63;;;7.77;;
10731;SDS011;5417;42.686;23.244;2023-06-01T01:26:29;9.20;;;8.00;;
10731;SDS011;5417;42.686;23.244;2023-06-01T01:59:05;11.13;;;10.00;;
10731;SDS011;5417;42.686;23.244;2023-06-01T02:04:45;20.30;;;11.70;;
10731;SDS011;5417;42.686;23.244;2023-06-01T02:31:53;17.20;;;9.73;;
10731;SDS011;5417;42.686;23.244;2023-06-01T02:54:26;11.87;;;9.40;;
10731;SDS011;5417;42.686;23.244;2023-06-01T03:00:21;8.50;;;7.80;;
10731;SDS011;5417;42.686;23.244;2023-06-01T03:02:49;12.90;;;8.83;;
10731;SDS011;5417;42.686;23.244;2023-06-01T03:35:38;20.37;;;11.47;;
10731;SDS011;5417;42.686;23.244;2023-06-01T03:38:02;19.23;;;10.27;;
10731;SDS011;5417;42.686;23.244;2023-06-01T03:40:29;18.47;;;10.67;;
10731;SDS011;5417;42.686;23.244;2023-06-01T03:46:09;14.10;;;10.37;;
10731;SDS011;5417;42.686;23.244;2023-06-01T03:48:38;14.07;;;10.10;;
10731;SDS011;5417;42.686;23.244;2023-06-01T04:17:16;12.13;;;10.43;;
10731;SDS011;5417;42.686;23.244;2023-06-01T04:19:27;10.43;;;9.43;;
10731;SDS011;5417;42.686;23.244;2023-06-01T04:48:30;34.97;;;11.40;;
10731;SDS011;5417;42.686;23.244;2023-06-01T04:57:36;24.87;;;12.37;;
10731;SDS011;5417;42.686;23.244;2023-06-01T05:00:04;15.67;;;13.43;;
10731;SDS011;5417;42.686;23.244;2023-06-01T05:02:36;35.20;;;15.10;;
10731;SDS011;5417;42.686;23.244;2023-06-01T05:05:05;74.03;;;28.10;;
10731;SDS011;5417;42.686;23.244;2023-06-01T05:07:33;57.20;;;24.53;;
10731;SDS011;5417;42.686;23.244;2023-06-01T05:11:06;42.03;;;23.57;;
10731;SDS011;5417;42.686;23.244;2023-06-01T05:13:21;37.33;;;22.53;;
10731;SDS011;5417;42.686;23.244;2023-06-01T05:16:17;43.53;;;23.03;;
10731;SDS011;5417;42.686;23.244;2023-06-01T05:19:40;37.47;;;22.03;;
10731;SDS011;5417;42.686;23.244;2023-06-01T05:22:03;33.70;;;20.13;;
10731;SDS011;5417;42.686;23.244;2023-06-01T05:25:33;32.40;;;19.63;;
10731;SDS011;5417;42.686;23.244;2023-06-01T05:27:44;21.50;;;17.03;;
10731;SDS011;5417;42.686;23.244;2023-06-01T05:36:46;24.03;;;18.03;;
10731;SDS011;5417;42.686;23.244;2023-06-01T05:39:09;24.67;;;19.33;;
10731;SDS011;5417;42.686;23.244;2023-06-01T05:41:37;26.17;;;21.10;;
10731;SDS011;5417;42.686;23.244;2023-06-01T05:44:06;26.87;;;20.97;;
10731;SDS011;5417;42.686;23.244;2023-06-01T05:46:36;24.43;;;19.93;;
10731;SDS011;5417;42.686;23.244;2023-06-01T05:49:04;25.30;;;19.10;;
10731;SDS011;5417;42.686;23.244;2023-06-01T05:51:31;24.17;;;19.20;;
10731;SDS011;5417;42.686;23.244;2023-06-01T05:57:24;20.10;;;17.93;;
10731;SDS011;5417;42.686;23.244;2023-06-01T05:59:56;21.93;;;18.10;;
10731;SDS011;5417;42.686;23.244;2023-06-01T06:02:23;22.50;;;17.87;;
10731;SDS011;5417;42.686;23.244;2023-06-01T06:04:51;20.67;;;18.43;;
10731;SDS011;5417;42.686;23.244;2023-06-01T06:07:18;20.50;;;18.20;;
10731;SDS011;5417;42.686;23.244;2023-06-01T06:09:45;21.93;;;19.50;;
10731;SDS011;5417;42.686;23.244;2023-06-01T06:12:11;21.37;;;19.07;;
10731;SDS011;5417;42.686;23.244;2023-06-01T06:14:38;22.00;;;19.00;;
10731;SDS011;5417;42.686;23.244;2023-06-01T06:17:05;20.33;;;18.13;;
10731;SDS011;5417;42.686;23.244;2023-06-01T06:19:32;19.63;;;17.63;;
10731;SDS011;5417;42.686;23.244;2023-06-01T06:22:00;20.90;;;17.67;;
10731;SDS011;5417;42.686;23.244;2023-06-01T06:24:27;19.60;;;17.50;;
10731;SDS011;5417;42.686;23.244;2023-06-01T06:26:54;20.50;;;17.77;;
10731;SDS011;5417;42.686;23.244;2023-06-01T06:29:21;18.80;;;16.97;;
10731;SDS011;5417;42.686;23.244;2023-06-01T06:31:47;18.70;;;16.80;;
10731;SDS011;5417;42.686;23.244;2023-06-01T06:34:14;19.00;;;17.03;;
10731;SDS011;5417;42.686;23.244;2023-06-01T06:36:41;19.33;;;17.27;;
10731;SDS011;5417;42.686;23.244;2023-06-01T06:39:09;19.93;;;17.33;;
10731;SDS011;5417;42.686;23.244;2023-06-01T06:41:36;23.87;;;17.10;;
10731;SDS011;5417;42.686;23.244;2023-06-01T06:44:03;20.40;;;18.00;;
10731;SDS011;5417;42.686;23.244;2023-06-01T06:46:30;18.00;;;16.20;;
10731;SDS011;5417;42.686;23.244;2023-06-01T06:48:56;20.50;;;15.77;;
10731;SDS011;5417;42.686;23.244;2023-06-01T06:51:23;17.63;;;15.40;;
10731;SDS011;5417;42.686;23.244;2023-06-01T06:53:50;17.93;;;14.97;;
10731;SDS011;5417;42.686;23.244;2023-06-01T06:56:19;18.37;;;16.07;;
10731;SDS011;5417;42.686;23.244;2023-06-01T06:58:46;18.23;;;16.33;;
10731;SDS011;5417;42.686;23.244;2023-06-01T07:01:12;17.87;;;15.87;;
10731;SDS011;5417;42.686;23.244;2023-06-01T07:03:39;15.33;;;13.63;;
10731;SDS011;5417;42.686;23.244;2023-06-01T07:06:06;15.37;;;13.87;;
10731;SDS011;5417;42.686;23.244;2023-06-01T07:08:33;15.80;;;14.30;;
10731;SDS011;5417;42.686;23.244;2023-06-01T07:11:01;14.10;;;12.77;;
10731;SDS011;5417;42.686;23.244;2023-06-01T07:13:29;13.33;;;11.93;;
10731;SDS011;5417;42.686;23.244;2023-06-01T07:15:56;14.37;;;12.97;;
10731;SDS011;5417;42.686;23.244;2023-06-01T07:18:23;27.80;;;24.37;;
10731;SDS011;5417;42.686;23.244;2023-06-01T07:20:54;14.83;;;13.43;;
10731;SDS011;5417;42.686;23.244;2023-06-01T07:23:21;15.17;;;13.53;;
10731;SDS011;5417;42.686;23.244;2023-06-01T07:25:47;14.80;;;13.17;;
10731;SDS011;5417;42.686;23.244;2023-06-01T07:28:14;15.70;;;13.77;;
10731;SDS011;5417;42.686;23.244;2023-06-01T07:30:43;18.17;;;14.23;;
10731;SDS011;5417;42.686;23.244;2023-06-01T07:33:10;15.30;;;13.80;;
10731;SDS011;5417;42.686;23.244;2023-06-01T07:35:37;18.10;;;16.40;;
10731;SDS011;5417;42.686;23.244;2023-06-01T07:38:04;16.30;;;14.70;;
10731;SDS011;5417;42.686;23.244;2023-06-01T07:40:32;29.43;;;24.47;;
10731;SDS011;5417;42.686;23.244;2023-06-01T07:42:59;22.50;;;20.40;;
10731;SDS011;5417;42.686;23.244;2023-06-01T07:45:26;18.53;;;16.87;;
10731;SDS011;5417;42.686;23.244;2023-06-01T07:47:54;15.57;;;13.97;;
10731;SDS011;5417;42.686;23.244;2023-06-01T07:50:21;16.47;;;14.77;;
10731;SDS011;5417;42.686;23.244;2023-06-01T07:52:48;21.87;;;18.80;;
10731;SDS011;5417;42.686;23.244;2023-06-01T07:55:17;16.27;;;14.63;;
10731;SDS011;5417;42.686;23.244;2023-06-01T07:57:44;15.60;;;14.00;;
10731;SDS011;5417;42.686;23.244;2023-06-01T08:00:11;18.07;;;13.83;;
10731;SDS011;5417;42.686;23.244;2023-06-01T08:02:38;15.50;;;14.00;;
10731;SDS011;5417;42.686;23.244;2023-06-01T08:05:08;25.47;;;23.00;;
10731;SDS011;5417;42.686;23.244;2023-06-01T08:07:36;16.17;;;14.63;;
10731;SDS011;5417;42.686;23.244;2023-06-01T08:10:03;17.23;;;15.53;;
10731;SDS011;5417;42.686;23.244;2023-06-01T08:12:31;16.60;;;14.17;;
10731;SDS011;5417;42.686;23.244;2023-06-01T08:14:58;15.60;;;14.13;;
10731;SDS011;5417;42.686;23.244;2023-06-01T08:17:25;16.23;;;14.47;;
10731;SDS011;5417;42.686;23.244;2023-06-01T08:19:52;15.17;;;13.67;;
10731;SDS011;5417;42.686;23.244;2023-06-01T08:22:22;13.80;;;12.50;;
10731;SDS011;5417;42.686;23.244;2023-06-01T08:24:49;17.17;;;13.87;;
10731;SDS011;5417;42.686;23.244;2023-06-01T08:27:18;15.33;;;13.77;;
10731;SDS011;5417;42.686;23.244;2023-06-01T08:29:46;15.67;;;14.07;;
10731;SDS011;5417;42.686;23.244;2023-06-01T08:32:13;16.93;;;15.17;;
10731;SDS011;5417;42.686;23.244;2023-06-01T08:34:42;18.33;;;16.43;;
10731;SDS011;5417;42.686;23.244;2023-06-01T08:37:09;19.00;;;15.90;;
10731;SDS011;5417;42.686;23.244;2023-06-01T08:39:37;15.80;;;14.27;;
10731;SDS011;5417;42.686;23.244;2023-06-01T08:42:06;16.73;;;13.13;;
10731;SDS011;5417;42.686;23.244;2023-06-01T08:44:35;16.00;;;14.33;;
10731;SDS011;5417;42.686;23.244;2023-06-01T08:47:03;16.70;;;13.63;;
10731;SDS011;5417;42.686;23.244;2023-06-01T08:49:29;15.50;;;12.33;;
10731;SDS011;5417;42.686;23.244;2023-06-01T08:51:57;14.07;;;12.67;;
10731;SDS011;5417;42.686;23.244;2023-06-01T08:54:26;15.43;;;13.53;;
10731;SDS011;5417;42.686;23.244;2023-06-01T08:56:57;16.60;;;15.20;;
10731;SDS011;5417;42.686;23.244;2023-06-01T08:59:27;16.33;;;14.63;;
10731;SDS011;5417;42.686;23.244;2023-06-01T09:01:55;16.53;;;14.83;;
10731;SDS011;5417;42.686;23.244;2023-06-01T09:04:23;15.77;;;14.07;;
10731;SDS011;5417;42.686;23.244;2023-06-01T09:06:50;15.53;;;13.93;;
10731;SDS011;5417;42.686;23.244;2023-06-01T09:09:17;16.87;;;14.13;;
10731;SDS011;5417;42.686;23.244;2023-06-01T09:11:44;14.50;;;12.67;;
10731;SDS011;5417;42.686;23.244;2023-06-01T09:14:21;14.80;;;13.23;;
10731;SDS011;5417;42.686;23.244;2023-06-01T09:16:50;14.23;;;12.83;;
10731;SDS011;5417;42.686;23.244;2023-06-01T09:19:17;13.77;;;12.40;;
10731;SDS011;5417;42.686;23.244;2023-06-01T09:21:55;15.00;;;11.23;;
10731;SDS011;5417;42.686;23.244;2023-06-01T09:24:23;11.77;;;10.57;;
10731;SDS011;5417;42.686;23.244;2023-06-01T09:26:50;11.93;;;10.73;;
10731;SDS011;5417;42.686;23.244;2023-06-01T09:29:23;12.07;;;11.07;;
10731;SDS011;5417;42.686;23.244;2023-06-01T09:31:51;11.67;;;10.47;;
10731;SDS011;5417;42.686;23.244;2023-06-01T09:34:19;11.87;;;10.67;;
10731;SDS011;5417;42.686;23.244;2023-06-01T09:36:46;10.93;;;10.03;;
10731;SDS011;5417;42.686;23.244;2023-06-01T09:39:16;10.97;;;9.87;;
10731;SDS011;5417;42.686;23.244;2023-06-01T09:41:48;12.43;;;10.13;;
10731;SDS011;5417;42.686;23.244;2023-06-01T09:44:24;10.87;;;9.43;;
10731;SDS011;5417;42.686;23.244;2023-06-01T09:46:52;13.23;;;10.07;;
10731;SDS011;5417;42.686;23.244;2023-06-01T09:49:21;11.10;;;10.00;;
10731;SDS011;5417;42.686;23.244;2023-06-01T09:51:50;11.20;;;10.30;;
10731;SDS011;5417;42.686;23.244;2023-06-01T09:54:22;12.00;;;10.90;;
10731;SDS011;5417;42.686;23.244;2023-06-01T09:56:53;10.47;;;9.40;;
10731;SDS011;5417;42.686;23.244;2023-06-01T09:59:27;10.17;;;9.13;;
10731;SDS011;5417;42.686;23.244;2023-06-01T10:01:54;11.00;;;10.03;;
10731;SDS011;5417;42.686;23.244;2023-06-01T10:04:27;10.67;;;9.77;;
10731;SDS011;5417;42.686;23.244;2023-06-01T10:07:00;14.00;;;12.80;;
10731;SDS011;5417;42.686;23.244;2023-06-01T10:09:36;15.37;;;13.87;;
10731;SDS011;5417;42.686;23.244;2023-06-01T10:12:07;8.90;;;8.10;;
10731;SDS011;5417;42.686;23.244;2023-06-01T10:14:36;8.27;;;7.47;;
10731;SDS011;5417;42.686;23.244;2023-06-01T10:17:03;8.37;;;7.67;;
10731;SDS011;5417;42.686;23.244;2023-06-01T10:19:31;7.60;;;6.93;;
10731;SDS011;5417;42.686;23.244;2023-06-01T10:21:58;7.83;;;7.13;;
10731;SDS011;5417;42.686;23.244;2023-06-01T10:24:32;6.87;;;6.27;;
10731;SDS011;5417;42.686;23.244;2023-06-01T10:27:01;7.00;;;6.37;;
10731;SDS011;5417;42.686;23.244;2023-06-01T10:29:37;6.60;;;6.07;;
10731;SDS011;5417;42.686;23.244;2023-06-01T10:32:09;6.73;;;6.13;;
10731;SDS011;5417;42.686;23.244;2023-06-01T10:35:09;7.53;;;6.87;;
10731;SDS011;5417;42.686;23.244;2023-06-01T10:40:48;7.47;;;7.03;;
10731;SDS011;5417;42.686;23.244;2023-06-01T10:49:02;7.50;;;6.80;;
10731;SDS011;5417;42.686;23.244;2023-06-01T10:51:35;8.10;;;7.43;;
10731;SDS011;5417;42.686;23.244;2023-06-01T11:02:54;9.83;;;9.03;;
10731;SDS011;5417;42.686;23.244;2023-06-01T11:05:42;9.67;;;8.87;;
10731;SDS011;5417;42.686;23.244;2023-06-01T11:11:16;9.53;;;8.63;;
10731;SDS011;5417;42.686;23.244;2023-06-01T11:13:47;9.30;;;8.70;;
10731;SDS011;5417;42.686;23.244;2023-06-01T11:16:41;9.40;;;8.70;;
10731;SDS011;5417;42.686;23.244;2023-06-01T11:19:18;8.60;;;7.63;;
10731;SDS011;5417;42.686;23.244;2023-06-01T11:21:54;9.97;;;8.37;;
10731;SDS011;5417;42.686;23.244;2023-06-01T11:24:24;9.47;;;8.63;;
10731;SDS011;5417;42.686;23.244;2023-06-01T11:26:51;8.87;;;8.23;;
10731;SDS011;5417;42.686;23.244;2023-06-01T11:29:19;7.73;;;7.03;;
10731;SDS011;5417;42.686;23.244;2023-06-01T11:31:52;7.90;;;7.27;;
10731;SDS011;5417;42.686;23.244;2023-06-01T11:34:30;8.57;;;7.77;;
10731;SDS011;5417;42.686;23.244;2023-06-01T11:36:59;8.90;;;8.27;;
10731;SDS011;5417;42.686;23.244;2023-06-01T11:39:27;11.17;;;7.87;;
10731;SDS011;5417;42.686;23.244;2023-06-01T11:42:05;8.47;;;7.80;;
10731;SDS011;5417;42.686;23.244;2023-06-01T11:44:35;9.10;;;7.97;;
10731;SDS011;5417;42.686;23.244;2023-06-01T11:47:03;7.70;;;7.10;;
10731;SDS011;5417;42.686;23.244;2023-06-01T11:49:39;7.67;;;7.07;;
10731;SDS011;5417;42.686;23.244;2023-06-01T11:52:08;7.30;;;6.80;;
10731;SDS011;5417;42.686;23.244;2023-06-01T11:54:35;7.47;;;6.80;;
10731;SDS011;5417;42.686;23.244;2023-06-01T11:57:02;7.00;;;6.30;;
10731;SDS011;5417;42.686;23.244;2023-06-01T11:59:36;6.50;;;5.90;;
10731;SDS011;5417;42.686;23.244;2023-06-01T12:02:03;5.87;;;5.47;;
10731;SDS011;5417;42.686;23.244;2023-06-01T12:04:45;6.00;;;5.50;;
10731;SDS011;5417;42.686;23.244;2023-06-01T12:07:22;5.20;;;4.80;;
10731;SDS011;5417;42.686;23.244;2023-06-01T12:09:49;5.63;;;5.13;;
10731;SDS011;5417;42.686;23.244;2023-06-01T12:12:16;4.33;;;4.00;;
10731;SDS011;5417;42.686;23.244;2023-06-01T12:14:43;4.27;;;3.97;;
10731;SDS011;5417;42.686;23.244;2023-06-01T12:17:12;4.53;;;4.17;;
10731;SDS011;5417;42.686;23.244;2023-06-01T12:19:45;4.60;;;4.30;;
10731;SDS011;5417;42.686;23.244;2023-06-01T12:22:13;5.70;;;4.83;;
10731;SDS011;5417;42.686;23.244;2023-06-01T12:24:40;4.97;;;4.67;;
10731;SDS011;5417;42.686;23.244;2023-06-01T12:27:12;7.10;;;4.97;;
10731;SDS011;5417;42.686;23.244;2023-06-01T12:29:40;6.43;;;5.27;;
10731;SDS011;5417;42.686;23.244;2023-06-01T12:32:09;5.50;;;4.87;;
10731;SDS011;5417;42.686;23.244;2023-06-01T12:34:37;5.73;;;4.63;;
10731;SDS011;5417;42.686;23.244;2023-06-01T12:37:12;5.43;;;4.97;;
10731;SDS011;5417;42.686;23.244;2023-06-01T12:39:41;5.10;;;4.57;;
10731;SDS011;5417;42.686;23.244;2023-06-01T12:42:08;4.80;;;4.50;;
10731;SDS011;5417;42.686;23.244;2023-06-01T12:44:36;8.43;;;6.00;;
10731;SDS011;5417;42.686;23.244;2023-06-01T12:47:05;5.30;;;4.97;;
10731;SDS011;5417;42.686;23.244;2023-06-01T12:49:32;7.03;;;4.53;;
10731;SDS011;5417;42.686;23.244;2023-06-01T12:51:59;5.03;;;4.63;;
10731;SDS011;5417;42.686;23.244;2023-06-01T12:54:27;5.03;;;4.53;;
10731;SDS011;5417;42.686;23.244;2023-06-01T12:56:54;4.93;;;4.13;;
10731;SDS011;5417;42.686;23.244;2023-06-01T12:59:21;5.13;;;4.63;;
10731;SDS011;5417;42.686;23.244;2023-06-01T13:01:48;5.37;;;4.60;;
10731;SDS011;5417;42.686;23.244;2023-06-01T13:04:14;4.73;;;4.23;;
10731;SDS011;5417;42.686;23.244;2023-06-01T13:06:41;4.77;;;4.37;;
10731;SDS011;5417;42.686;23.244;2023-06-01T13:09:09;4.23;;;3.93;;
10731;SDS011;5417;42.686;23.244;2023-06-01T13:11:37;4.03;;;3.70;;
10731;SDS011;5417;42.686;23.244;2023-06-01T13:14:04;4.37;;;4.07;;
10731;SDS011;5417;42.686;23.244;2023-06-01T13:16:32;4.13;;;3.83;;
10731;SDS011;5417;42.686;23.244;2023-06-01T13:18:58;6.90;;;6.20;;
10731;SDS011;5417;42.686;23.244;2023-06-01T13:21:25;4.87;;;4.57;;
10731;SDS011;5417;42.686;23.244;2023-06-01T13:23:52;3.87;;;3.67;;
10731;SDS011;5417;42.686;23.244;2023-06-01T13:26:19;3.83;;;3.60;;
10731;SDS011;5417;42.686;23.244;2023-06-01T13:28:48;3.70;;;3.40;;
10731;SDS011;5417;42.686;23.244;2023-06-01T13:31:15;3.80;;;3.47;;
10731;SDS011;5417;42.686;23.244;2023-06-01T13:33:42;2.83;;;2.63;;
10731;SDS011;5417;42.686;23.244;2023-06-01T13:36:09;6.50;;;5.83;;
10731;SDS011;5417;42.686;23.244;2023-06-01T13:38:36;4.80;;;4.50;;
10731;SDS011;5417;42.686;23.244;2023-06-01T13:41:03;4.23;;;3.00;;
10731;SDS011;5417;42.686;23.244;2023-06-01T13:43:30;3.53;;;2.80;;
10731;SDS011;5417;42.686;23.244;2023-06-01T13:45:58;2.10;;;2.00;;
10731;SDS011;5417;42.686;23.244;2023-06-01T13:48:25;2.40;;;2.20;;
10731;SDS011;5417;42.686;23.244;2023-06-01T13:50:52;2.97;;;2.57;;
10731;SDS011;5417;42.686;23.244;2023-06-01T13:53:19;2.63;;;2.47;;
10731;SDS011;5417;42.686;23.244;2023-06-01T13:55:45;2.73;;;2.53;;
10731;SDS011;5417;42.686;23.244;2023-06-01T13:58:12;2.13;;;2.03;;
10731;SDS011;5417;42.686;23.244;2023-06-01T14:00:39;3.10;;;2.90;;
10731;SDS011;5417;42.686;23.244;2023-06-01T14:03:07;3.57;;;3.23;;
10731;SDS011;5417;42.686;23.244;2023-06-01T14:05:35;2.83;;;2.63;;
10731;SDS011;5417;42.686;23.244;2023-06-01T14:08:02;2.20;;;2.10;;
10731;SDS011;5417;42.686;23.244;2023-06-01T14:10:29;2.60;;;2.50;;
10731;SDS011;5417;42.686;23.244;2023-06-01T14:12:56;5.27;;;2.83;;
10731;SDS011;5417;42.686;23.244;2023-06-01T14:15:22;2.77;;;2.60;;
10731;SDS011;5417;42.686;23.244;2023-06-01T14:17:50;3.00;;;2.90;;
10731;SDS011;5417;42.686;23.244;2023-06-01T14:20:18;3.07;;;2.77;;
10731;SDS011;5417;42.686;23.244;2023-06-01T14:22:45;4.03;;;3.73;;
10731;SDS011;5417;42.686;23.244;2023-06-01T14:25:12;4.47;;;3.83;;
10731;SDS011;5417;42.686;23.244;2023-06-01T14:27:39;4.70;;;4.40;;
10731;SDS011;5417;42.686;23.244;2023-06-01T14:30:06;4.07;;;3.73;;
10731;SDS011;5417;42.686;23.244;2023-06-01T14:32:34;4.90;;;4.20;;
10731;SDS011;5417;42.686;23.244;2023-06-01T14:35:01;6.63;;;4.60;;
10731;SDS011;5417;42.686;23.244;2023-06-01T14:37:29;4.10;;;3.80;;
10731;SDS011;5417;42.686;23.244;2023-06-01T14:39:56;3.93;;;3.63;;
10731;SDS011;5417;42.686;23.244;2023-06-01T14:42:23;4.53;;;4.13;;
10731;SDS011;5417;42.686;23.244;2023-06-01T14:44:49;4.00;;;3.63;;
10731;SDS011;5417;42.686;23.244;2023-06-01T14:47:16;4.33;;;3.87;;
10731;SDS011;5417;42.686;23.244;2023-06-01T14:49:43;4.60;;;4.20;;
10731;SDS011;5417;42.686;23.244;2023-06-01T14:52:10;4.27;;;3.97;;
10731;SDS011;5417;42.686;23.244;2023-06-01T14:54:38;4.83;;;4.43;;
10731;SDS011;5417;42.686;23.244;2023-06-01T14:57:05;5.33;;;4.80;;
10731;SDS011;5417;42.686;23.244;2023-06-01T14:59:32;4.37;;;3.97;;
10731;SDS011;5417;42.686;23.244;2023-06-01T15:02:01;5.13;;;4.67;;
10731;SDS011;5417;42.686;23.244;2023-06-01T15:04:28;4.77;;;4.37;;
10731;SDS011;5417;42.686;23.244;2023-06-01T15:06:54;5.57;;;5.13;;
10731;SDS011;5417;42.686;23.244;2023-06-01T15:09:21;8.30;;;6.27;;
10731;SDS011;5417;42.686;23.244;2023-06-01T15:11:49;6.57;;;6.07;;
10731;SDS011;5417;42.686;23.244;2023-06-01T15:14:16;68.27;;;36.97;;
10731;SDS011;5417;42.686;23.244;2023-06-01T15:16:43;6.73;;;6.10;;
10731;SDS011;5417;42.686;23.244;2023-06-01T15:19:09;6.33;;;5.73;;
10731;SDS011;5417;42.686;23.244;2023-06-01T15:21:36;6.47;;;5.87;;
10731;SDS011;5417;42.686;23.244;2023-06-01T15:24:03;6.67;;;5.30;;
10731;SDS011;5417;42.686;23.244;2023-06-01T15:26:30;5.53;;;5.03;;
10731;SDS011;5417;42.686;23.244;2023-06-01T15:28:59;8.00;;;5.77;;
10731;SDS011;5417;42.686;23.244;2023-06-01T15:31:26;5.83;;;5.33;;
10731;SDS011;5417;42.686;23.244;2023-06-01T15:33:52;6.67;;;5.57;;
10731;SDS011;5417;42.686;23.244;2023-06-01T15:36:19;7.20;;;5.93;;
10731;SDS011;5417;42.686;23.244;2023-06-01T15:38:46;7.10;;;5.63;;
10731;SDS011;5417;42.686;23.244;2023-06-01T15:41:13;6.43;;;5.57;;
10731;SDS011;5417;42.686;23.244;2023-06-01T15:43:40;6.00;;;5.37;;
10731;SDS011;5417;42.686;23.244;2023-06-01T15:46:08;6.37;;;5.77;;
10731;SDS011;5417;42.686;23.244;2023-06-01T15:48:34;5.70;;;5.10;;
10731;SDS011;5417;42.686;23.244;2023-06-01T15:51:04;5.80;;;5.20;;
10731;SDS011;5417;42.686;23.244;2023-06-01T15:53:31;5.93;;;5.43;;
10731;SDS011;5417;42.686;23.244;2023-06-01T15:55:58;7.10;;;5.87;;
10731;SDS011;5417;42.686;23.244;2023-06-01T15:58:25;6.83;;;5.90;;
10731;SDS011;5417;42.686;23.244;2023-06-01T16:00:51;7.07;;;6.47;;
10731;SDS011;5417;42.686;23.244;2023-06-01T16:06:50;7.27;;;6.67;;
10731;SDS011;5417;42.686;23.244;2023-06-01T16:09:17;6.43;;;5.83;;
10731;SDS011;5417;42.686;23.244;2023-06-01T16:11:44;6.73;;;6.23;;
10731;SDS011;5417;42.686;23.244;2023-06-01T16:14:11;5.70;;;5.13;;
10731;SDS011;5417;42.686;23.244;2023-06-01T16:17:08;6.50;;;5.90;;
10731;SDS011;5417;42.686;23.244;2023-06-01T16:19:39;6.57;;;5.53;;
10731;SDS011;5417;42.686;23.244;2023-06-01T16:22:07;6.33;;;5.83;;
10731;SDS011;5417;42.686;23.244;2023-06-01T16:24:34;6.40;;;5.90;;
10731;SDS011;5417;42.686;23.244;2023-06-01T16:27:02;6.03;;;5.43;;
10731;SDS011;5417;42.686;23.244;2023-06-01T16:29:29;7.23;;;5.87;;
10731;SDS011;5417;42.686;23.244;2023-06-01T16:31:56;6.80;;;6.13;;
10731;SDS011;5417;42.686;23.244;2023-06-01T16:34:22;6.77;;;6.13;;
10731;SDS011;5417;42.686;23.244;2023-06-01T16:36:49;9.40;;;6.63;;
10731;SDS011;5417;42.686;23.244;2023-06-01T16:39:18;7.67;;;6.77;;
10731;SDS011;5417;42.686;23.244;2023-06-01T16:41:45;8.00;;;7.30;;
10731;SDS011;5417;42.686;23.244;2023-06-01T16:44:11;35.43;;;31.63;;
10731;SDS011;5417;42.686;23.244;2023-06-01T16:46:39;42.00;;;37.63;;
10731;SDS011;5417;42.686;23.244;2023-06-01T16:49:06;9.60;;;7.33;;
10731;SDS011;5417;42.686;23.244;2023-06-01T16:51:33;10.43;;;7.43;;
10731;SDS011;5417;42.686;23.244;2023-06-01T16:57:06;6.93;;;6.30;;
10731;SDS011;5417;42.686;23.244;2023-06-01T16:59:35;8.47;;;7.63;;
10731;SDS011;5417;42.686;23.244;2023-06-01T17:02:02;12.00;;;7.33;;
10731;SDS011;5417;42.686;23.244;2023-06-01T17:04:55;7.50;;;6.90;;
10731;SDS011;5417;42.686;23.244;2023-06-01T17:07:22;8.20;;;6.37;;
10731;SDS011;5417;42.686;23.244;2023-06-01T17:09:50;10.20;;;6.13;;
10731;SDS011;5417;42.686;23.244;2023-06-01T17:12:17;6.97;;;6.37;;
10731;SDS011;5417;42.686;23.244;2023-06-01T17:14:44;7.03;;;6.27;;
10731;SDS011;5417;42.686;23.244;2023-06-01T17:17:11;8.73;;;7.17;;
10731;SDS011;5417;42.686;23.244;2023-06-01T17:19:38;7.50;;;6.90;;
10731;SDS011;5417;42.686;23.244;2023-06-01T17:22:05;9.57;;;7.53;;
10731;SDS011;5417;42.686;23.244;2023-06-01T17:24:34;8.27;;;7.43;;
10731;SDS011;5417;42.686;23.244;2023-06-01T17:27:02;23.50;;;21.17;;
10731;SDS011;5417;42.686;23.244;2023-06-01T17:29:30;21.87;;;19.60;;
10731;SDS011;5417;42.686;23.244;2023-06-01T17:34:34;8.37;;;7.57;;
10731;SDS011;5417;42.686;23.244;2023-06-01T17:37:01;8.67;;;7.70;;
10731;SDS011;5417;42.686;23.244;2023-06-01T17:39:28;8.97;;;8.20;;
10731;SDS011;5417;42.686;23.244;2023-06-01T17:41:55;9.00;;;8.10;;
10731;SDS011;5417;42.686;23.244;2023-06-01T17:44:23;9.27;;;7.77;;
10731;SDS011;5417;42.686;23.244;2023-06-01T17:46:51;9.20;;;8.33;;
10731;SDS011;5417;42.686;23.244;2023-06-01T17:49:17;9.00;;;7.80;;
10731;SDS011;5417;42.686;23.244;2023-06-01T17:51:44;10.33;;;8.10;;
10731;SDS011;5417;42.686;23.244;2023-06-01T17:54:11;8.50;;;7.57;;
10731;SDS011;5417;42.686;23.244;2023-06-01T17:56:38;9.13;;;8.20;;
10731;SDS011;5417;42.686;23.244;2023-06-01T18:02:21;9.27;;;7.83;;
10731;SDS011;5417;42.686;23.244;2023-06-01T18:05:50;8.80;;;7.80;;
10731;SDS011;5417;42.686;23.244;2023-06-01T18:07:59;9.87;;;8.63;;
10731;SDS011;5417;42.686;23.244;2023-06-01T18:10:26;9.60;;;8.50;;
10731;SDS011;5417;42.686;23.244;2023-06-01T18:12:53;8.53;;;7.60;;
10731;SDS011;5417;42.686;23.244;2023-06-01T18:15:20;8.90;;;8.10;;
10731;SDS011;5417;42.686;23.244;2023-06-01T18:17:48;10.20;;;8.20;;
10731;SDS011;5417;42.686;23.244;2023-06-01T18:20:15;10.03;;;8.60;;
10731;SDS011;5417;42.686;23.244;2023-06-01T18:22:42;11.33;;;9.13;;
10731;SDS011;5417;42.686;23.244;2023-06-01T18:25:09;8.57;;;7.77;;
10731;SDS011;5417;42.686;23.244;2023-06-01T18:27:36;9.67;;;8.87;;
10731;SDS011;5417;42.686;23.244;2023-06-01T18:30:16;9.63;;;8.70;;
10731;SDS011;5417;42.686;23.244;2023-06-01T18:35:40;10.83;;;9.50;;
10731;SDS011;5417;42.686;23.244;2023-06-01T18:38:07;10.77;;;9.00;;
10731;SDS011;5417;42.686;23.244;2023-06-01T18:40:34;13.57;;;9.30;;
10731;SDS011;5417;42.686;23.244;2023-06-01T18:43:01;11.70;;;9.57;;
10731;SDS011;5417;42.686;23.244;2023-06-01T18:45:28;13.83;;;9.50;;
10731;SDS011;5417;42.686;23.244;2023-06-01T18:47:56;10.17;;;9.23;;
10731;SDS011;5417;42.686;23.244;2023-06-01T18:50:31;12.83;;;9.17;;
10731;SDS011;5417;42.686;23.244;2023-06-01T18:52:57;10.80;;;9.17;;
10731;SDS011;5417;42.686;23.244;2023-06-01T18:56:11;13.83;;;9.73;;
10731;SDS011;5417;42.686;23.244;2023-06-01T18:58:38;12.40;;;11.20;;
10731;SDS011;5417;42.686;23.244;2023-06-01T19:01:05;11.23;;;10.07;;
10731;SDS011;5417;42.686;23.244;2023-06-01T19:03:32;9.63;;;8.73;;
10731;SDS011;5417;42.686;23.244;2023-06-01T19:06:01;35.93;;;31.37;;
10731;SDS011;5417;42.686;23.244;2023-06-01T19:09:51;16.03;;;14.07;;
10731;SDS011;5417;42.686;23.244;2023-06-01T19:11:40;16.53;;;11.77;;
10731;SDS011;5417;42.686;23.244;2023-06-01T19:14:09;15.90;;;11.67;;
10731;SDS011;5417;42.686;23.244;2023-06-01T19:19:59;13.37;;;11.80;;
10731;SDS011;5417;42.686;23.244;2023-06-01T19:22:28;12.03;;;10.90;;
10731;SDS011;5417;42.686;23.244;2023-06-01T19:24:57;18.63;;;13.83;;
10731;SDS011;5417;42.686;23.244;2023-06-01T19:27:24;15.50;;;11.97;;
10731;SDS011;5417;42.686;23.244;2023-06-01T19:29:57;14.00;;;11.47;;
10731;SDS011;5417;42.686;23.244;2023-06-01T19:32:24;19.53;;;12.23;;
10731;SDS011;5417;42.686;23.244;2023-06-01T19:34:50;15.07;;;11.57;;
10731;SDS011;5417;42.686;23.244;2023-06-01T19:38:26;15.80;;;11.50;;
10731;SDS011;5417;42.686;23.244;2023-06-01T19:40:22;11.67;;;9.87;;